Time;durP1;ratioP1;P1;durP2;ratioP2;P2;SDS_P1;SDS_P2;PMS_P1;PMS_P2;Temp;Humidity;BMP_temperature;BMP_pressure;BME280_temperature;BME280_humidity;BME280_pressure;Samples;Min_cycle;Max_cycle;Signal;HPM_P1;HPM_P2
2023/11/11 02:02:41;;;;;;;;;;;;;;;7.20;78.67;98215.31;1087981;54;1656;-83
2023/11/11 02:04:03;;;;;;;;;;;;;;;7.17;78.92;98207.69;1088660;54;948;-77
2023/11/11 02:05:08;;;;;;;;;;;;;;;6.94;79.37;98216.31;1088445;54;959;-77
2023/11/11 02:06:09;;;;;;;;;;;;;;;6.88;79.80;98211.69;1088471;47;975;-77
2023/11/11 02:07:13;;;;;;;;;;;;;;;6.79;80.15;98212.69;1088255;54;881;-77
2023/11/11 02:08:17;;;;;;;;;;;;;;;6.91;80.10;98213.97;1088306;47;930;-77
2023/11/11 02:09:22;;;;;;;;;;;;;;;6.86;80.20;98214.47;1088333;54;1337;-78
2023/11/11 02:10:24;;;;;;;;;;;;;;;6.82;80.28;98207.00;1088406;54;950;-78
2023/11/11 02:11:28;;;;;;;;;;;;;;;6.65;80.16;98207.00;1088410;54;974;-79
2023/11/11 02:12:29;;;;;;;;;;;;;;;6.61;80.30;98226.09;1088367;54;1856;-77
2023/11/11 02:13:34;;;;;;;;;;;;;;;6.61;80.01;98212.81;1088306;54;995;-79
2023/11/11 02:14:37;;;;;;;;;;;;;;;6.60;80.09;98222.63;1088278;47;947;-77
2023/11/11 02:15:40;;;;;;;;;;;;;;;6.59;80.17;98228.91;1088354;54;915;-77
2023/11/11 02:16:44;;;;;;;;;;;;;;;6.56;80.21;98226.56;1088257;47;932;-78
2023/11/11 02:17:55;;;;;;;;;;;;;;;6.51;80.88;98215.63;1088346;47;937;-79
2023/11/11 02:19:00;;;;;;;;;;;;;;;6.55;81.15;98228.41;1088346;47;949;-76
2023/11/11 02:20:04;;;;;;;;;;;;;;;6.53;81.47;98235.72;1088390;54;1443;-77
2023/11/11 02:21:04;;;;;;;;;;;;;;;6.60;81.76;98246.50;1088327;47;975;-77
2023/11/11 02:22:10;;;;;;;;;;;;;;;6.63;81.70;98248.81;1088161;54;995;-77
2023/11/11 02:23:11;;;;;;;;;;;;;;;6.57;81.54;98246.84;1088427;54;953;-77
2023/11/11 02:24:28;;;;;;;;;;;;;;;6.45;81.89;98248.13;1088333;46;1020;-77
2023/11/11 02:25:28;;;;;;;;;;;;;;;6.57;82.35;98262.75;1088318;54;961;-77
2023/11/11 02:26:32;;;;;;;;;;;;;;;6.61;82.52;98263.25;1088319;47;919;-76
2023/11/11 02:27:34;;;;;;;;;;;;;;;6.37;82.76;98259.56;1088346;46;994;-78
2023/11/11 02:28:37;;;;;;;;;;;;;;;6.30;83.55;98269.16;1088406;54;1000;-77
2023/11/11 02:29:43;;;;;;;;;;;;;;;6.26;84.12;98273.94;1088288;47;1381;-76
2023/11/11 02:30:48;;;;;;;;;;;;;;;6.17;84.60;98274.91;1088390;47;1022;-77
2023/11/11 02:31:50;;;;;;;;;;;;;;;6.14;85.08;98270.75;1088417;46;905;-77
2023/11/11 02:32:53;;;;;;;;;;;;;;;6.08;85.23;98289.97;1088359;54;1876;-77
2023/11/11 02:33:54;;;;;;;;;;;;;;;5.98;85.57;98300.66;1088413;54;1016;-77
2023/11/11 02:34:57;;;;;;;;;;;;;;;6.04;85.69;98294.78;1088339;47;887;-76
2023/11/11 02:35:58;;;;;;;;;;;;;;;6.10;85.42;98301.25;1088413;46;976;-77
2023/11/11 02:37:03;;;;;;;;;;;;;;;6.01;86.18;98299.53;1088438;54;1032;-76
2023/11/11 02:38:03;;;;;;;;;;;;;;;5.92;87.01;98309.25;1088439;46;1189;-77
2023/11/11 02:39:07;;;;;;;;;;;;;;;5.88;87.29;98313.19;1088220;46;920;-77
2023/11/11 02:40:12;;;;;;;;;;;;;;;5.92;87.55;98311.91;1088347;46;1307;-76
2023/11/11 02:41:16;;;;;;;;;;;;;;;6.01;87.17;98311.00;1088437;46;961;-76
2023/11/11 02:42:17;;;;;;;;;;;;;;;5.97;87.48;98325.53;1088268;47;898;-77
2023/11/11 02:43:20;;;;;;;;;;;;;;;5.94;87.49;98320.56;1088313;47;953;-76
2023/11/11 02:44:21;;;;;;;;;;;;;;;5.88;87.78;98318.50;1088283;47;996;-75
2023/11/11 02:45:25;;;;;;;;;;;;;;;5.88;87.60;98314.06;1088239;47;931;-75
2023/11/11 02:46:26;;;;;;;;;;;;;;;5.82;87.26;98319.97;1088309;54;987;-76
2023/11/11 02:47:27;;;;;;;;;;;;;;;5.90;86.94;98319.19;1088254;54;983;-76
2023/11/11 02:48:31;;;;;;;;;;;;;;;5.84;86.75;98331.25;1088311;54;1159;-77
2023/11/11 02:49:32;;;;;;;;;;;;;;;5.82;86.37;98321.78;1088295;47;1302;-76
2023/11/11 02:50:35;;;;;;;;;;;;;;;5.84;86.61;98338.38;1088401;46;865;-75
2023/11/11 02:51:36;;;;;;;;;;;;;;;5.85;86.81;98329.44;1088271;46;980;-76
2023/11/11 02:52:39;;;;;;;;;;;;;;;5.89;86.85;98341.38;1088305;54;1845;-76
2023/11/11 02:53:40;;;;;;;;;;;;;;;5.90;86.92;98343.88;1088249;54;981;-76
2023/11/11 02:54:43;;;;;;;;;;;;;;;5.89;87.03;98352.00;1088246;47;915;-76
2023/11/11 02:55:46;;;;;;;;;;;;;;;5.88;87.70;98364.44;1088308;46;915;-75
2023/11/11 02:56:50;;;;;;;;;;;;;;;5.89;87.78;98350.19;1088208;47;945;-77
2023/11/11 02:57:52;;;;;;;;;;;;;;;5.91;87.61;98358.81;1088241;47;978;-76
2023/11/11 02:58:55;;;;;;;;;;;;;;;5.97;87.79;98365.31;1088259;47;966;-75
2023/11/11 02:59:55;;;;;;;;;;;;;;;6.01;88.27;98385.28;1088220;54;1445;-78
2023/11/11 03:00:59;;;;;;;;;;;;;;;5.99;87.63;98371.34;1088229;46;979;-78
2023/11/11 03:01:59;;;;;;;;;;;;;;;6.05;88.17;98373.34;1088252;47;1175;-77
2023/11/11 03:03:00;;;;;;;;;;;;;;;6.09;87.61;98380.00;1088016;54;1224;-76
2023/11/11 03:04:03;;;;;;;;;;;;;;;6.09;87.73;98381.84;1088342;54;1121;-76
2023/11/11 03:05:04;;;;;;;;;;;;;;;5.97;88.05;98375.91;1088471;54;972;-76
2023/11/11 03:06:08;;;;;;;;;;;;;;;5.95;88.87;98401.78;1088501;54;1087;-76
2023/11/11 03:07:10;;;;;;;;;;;;;;;5.98;88.82;98385.53;1088333;47;979;-76
2023/11/11 03:08:14;;;;;;;;;;;;;;;5.97;88.93;98393.66;1088286;54;915;-76
2023/11/11 03:09:16;;;;;;;;;;;;;;;5.94;88.80;98390.34;1088334;54;1391;-77
2023/11/11 03:10:19;;;;;;;;;;;;;;;6.04;89.29;98390.28;1088371;46;1056;-76
2023/11/11 03:11:22;;;;;;;;;;;;;;;6.02;88.65;98391.41;1088316;54;978;-76
2023/11/11 03:12:26;;;;;;;;;;;;;;;6.09;88.70;98395.13;1088480;47;843;-76
2023/11/11 03:13:27;;;;;;;;;;;;;;;6.15;88.31;98402.44;1088421;47;996;-77
2023/11/11 03:14:30;;;;;;;;;;;;;;;6.13;87.99;98404.41;1088435;54;986;-77
2023/11/11 03:15:31;;;;;;;;;;;;;;;6.07;87.91;98400.56;1088326;54;978;-76
2023/11/11 03:16:38;;;;;;;;;;;;;;;6.05;87.46;98399.06;1088317;54;1001;-76
2023/11/11 03:17:39;;;;;;;;;;;;;;;6.04;86.95;98387.63;1088275;54;1045;-77
2023/11/11 03:18:42;;;;;;;;;;;;;;;6.04;86.75;98384.97;1088029;47;974;-77
2023/11/11 03:19:43;;;;;;;;;;;;;;;6.05;86.31;98391.91;1088266;54;1396;-77
2023/11/11 03:20:47;;;;;;;;;;;;;;;6.04;85.65;98390.28;1088288;54;962;-76
2023/11/11 03:21:47;;;;;;;;;;;;;;;6.04;85.62;98400.88;1088290;54;1004;-75
2023/11/11 03:22:48;;;;;;;;;;;;;;;5.99;85.57;98397.84;1088357;54;907;-76
2023/11/11 03:23:51;;;;;;;;;;;;;;;6.01;85.83;98400.34;1088247;47;998;-78
2023/11/11 03:24:52;;;;;;;;;;;;;;;6.06;86.14;98401.53;1088304;54;1009;-77
2023/11/11 03:25:52;;;;;;;;;;;;;;;6.05;85.76;98402.53;1088399;46;923;-77
2023/11/11 03:26:59;;;;;;;;;;;;;;;6.03;86.39;98398.38;1088295;46;943;-77
2023/11/11 03:27:59;;;;;;;;;;;;;;;6.02;86.88;98413.47;1088357;54;1001;-78
2023/11/11 03:29:00;;;;;;;;;;;;;;;6.02;86.74;98412.63;1088266;47;1057;-77
2023/11/11 03:30:04;;;;;;;;;;;;;;;6.10;87.00;98402.06;1088326;54;1403;-76
2023/11/11 03:31:04;;;;;;;;;;;;;;;6.12;87.06;98409.88;1088352;46;982;-77
2023/11/11 03:32:08;;;;;;;;;;;;;;;6.19;86.99;98405.59;1088346;54;915;-76
2023/11/11 03:33:08;;;;;;;;;;;;;;;6.25;86.70;98412.94;1088334;46;1885;-76
2023/11/11 03:34:12;;;;;;;;;;;;;;;6.20;87.21;98409.94;1088309;54;991;-76
2023/11/11 03:35:12;;;;;;;;;;;;;;;6.27;87.24;98413.63;1088010;54;1089;-77
2023/11/11 03:36:17;;;;;;;;;;;;;;;6.15;87.99;98406.91;1088312;54;1102;-77
2023/11/11 03:37:18;;;;;;;;;;;;;;;6.16;88.75;98405.91;1088257;54;966;-76
2023/11/11 03:38:22;;;;;;;;;;;;;;;6.13;88.80;98416.84;1088261;54;921;-77
2023/11/11 03:39:23;;;;;;;;;;;;;;;6.17;89.07;98415.53;1088246;47;1294;-76
2023/11/11 03:40:26;;;;;;;;;;;;;;;6.24;88.90;98412.13;1088353;54;1121;-76
2023/11/11 03:41:27;;;;;;;;;;;;;;;6.20;89.14;98405.44;1088335;54;1176;-76
2023/11/11 03:42:32;;;;;;;;;;;;;;;6.23;89.02;98410.44;1088285;47;908;-76
2023/11/11 03:43:35;;;;;;;;;;;;;;;6.30;89.12;98415.13;1088096;54;1062;-76
2023/11/11 03:44:39;;;;;;;;;;;;;;;6.33;88.93;98404.19;1088306;54;1003;-76
2023/11/11 03:45:39;;;;;;;;;;;;;;;6.32;89.40;98403.38;1088339;54;988;-75
2023/11/11 03:46:43;;;;;;;;;;;;;;;6.38;89.37;98407.19;1088235;54;922;-76
2023/11/11 03:47:44;;;;;;;;;;;;;;;6.39;89.80;98414.16;1088179;47;933;-76
2023/11/11 03:48:47;;;;;;;;;;;;;;;6.40;89.26;98413.19;1088332;54;931;-76
2023/11/11 03:49:48;;;;;;;;;;;;;;;6.42;89.62;98418.34;1088244;47;1172;-77
2023/11/11 03:50:51;;;;;;;;;;;;;;;6.40;89.86;98416.69;1088223;54;1026;-76
2023/11/11 03:51:52;;;;;;;;;;;;;;;6.48;90.18;98417.72;1088313;54;918;-76
2023/11/11 03:52:53;;;;;;;;;;;;;;;6.49;89.53;98419.38;1087822;54;1849;-79
2023/11/11 03:53:56;;;;;;;;;;;;;;;6.49;90.05;98424.69;1087798;47;1007;-78
2023/11/11 03:54:57;;;;;;;;;;;;;;;6.56;89.69;98431.03;1087930;54;1090;-78
2023/11/11 03:56:04;;;;;;;;;;;;;;;6.63;89.36;98440.00;1087632;47;1082;-78
2023/11/11 03:57:05;;;;;;;;;;;;;;;6.67;88.97;98427.25;1087848;54;1070;-78
2023/11/11 03:58:11;;;;;;;;;;;;;;;6.62;89.24;98427.72;1087940;54;1153;-78
2023/11/11 03:59:12;;;;;;;;;;;;;;;6.66;88.80;98430.91;1087708;47;1111;-79
2023/11/11 04:00:19;;;;;;;;;;;;;;;6.70;88.51;98435.75;1087809;54;1352;-78
2023/11/11 04:01:20;;;;;;;;;;;;;;;6.74;88.39;98432.75;1087996;46;1067;-79
2023/11/11 04:02:23;;;;;;;;;;;;;;;6.68;88.21;98428.91;1087947;47;1002;-78
2023/11/11 04:03:24;;;;;;;;;;;;;;;6.62;88.26;98427.72;1087358;54;1174;-79
2023/11/11 04:04:27;;;;;;;;;;;;;;;6.67;88.31;98430.75;1087976;47;940;-78
2023/11/11 04:05:28;;;;;;;;;;;;;;;6.76;87.64;98433.44;1087996;47;1070;-79
2023/11/11 04:06:31;;;;;;;;;;;;;;;6.78;87.23;98440.25;1088089;47;951;-79
2023/11/11 04:07:34;;;;;;;;;;;;;;;6.72;87.08;98436.41;1087988;47;1010;-78
2023/11/11 04:08:35;;;;;;;;;;;;;;;6.76;86.08;98452.03;1087986;54;1087;-79
2023/11/11 04:09:41;;;;;;;;;;;;;;;6.78;86.00;98447.41;1087988;54;1242;-78
2023/11/11 04:10:42;;;;;;;;;;;;;;;6.86;85.54;98450.06;1088236;54;1027;-79
2023/11/11 04:11:45;;;;;;;;;;;;;;;6.95;85.69;98454.44;1088144;54;1087;-78
2023/11/11 04:12:46;;;;;;;;;;;;;;;6.94;85.24;98468.72;1088088;47;1858;-79
2023/11/11 04:13:53;;;;;;;;;;;;;;;6.92;85.09;98460.06;1088286;54;1070;-78
2023/11/11 04:14:54;;;;;;;;;;;;;;;6.96;84.85;98465.88;1088223;47;996;-78
2023/11/11 04:15:57;;;;;;;;;;;;;;;6.94;84.86;98462.56;1088331;47;1163;-79
2023/11/11 04:16:58;;;;;;;;;;;;;;;6.94;84.80;98476.69;1088071;47;1072;-79
2023/11/11 04:18:02;;;;;;;;;;;;;;;6.96;84.74;98464.06;1088276;54;977;-81
2023/11/11 04:19:03;;;;;;;;;;;;;;;7.03;84.53;98480.22;1088350;46;962;-80
2023/11/11 04:20:09;;;;;;;;;;;;;;;7.01;84.57;98480.34;1088343;54;1325;-80
2023/11/11 04:21:10;;;;;;;;;;;;;;;7.04;84.60;98479.19;1088469;54;946;-80
2023/11/11 04:22:14;;;;;;;;;;;;;;;7.07;84.54;98483.38;1088443;54;896;-80
2023/11/11 04:23:14;;;;;;;;;;;;;;;7.12;84.31;98491.69;1088288;47;943;-79
2023/11/11 04:24:18;;;;;;;;;;;;;;;7.14;84.21;98485.22;1088316;47;974;-81
2023/11/11 04:25:18;;;;;;;;;;;;;;;7.12;84.28;98494.34;1088373;47;1002;-80
2023/11/11 04:26:19;;;;;;;;;;;;;;;7.20;83.93;98498.88;1088322;54;1026;-80
2023/11/11 04:27:23;;;;;;;;;;;;;;;7.16;83.90;98503.66;1088344;54;973;-79
2023/11/11 04:28:26;;;;;;;;;;;;;;;7.08;84.00;98504.47;1088358;47;978;-81
2023/11/11 04:29:33;;;;;;;;;;;;;;;7.12;83.90;98508.47;1088302;46;1242;-80
2023/11/11 04:30:33;;;;;;;;;;;;;;;7.16;84.22;98506.31;1088344;54;972;-80
2023/11/11 04:31:34;;;;;;;;;;;;;;;7.13;84.18;98509.31;1088407;47;965;-80
2023/11/11 04:32:38;;;;;;;;;;;;;;;7.22;84.44;98516.31;1088232;47;891;-80
2023/11/11 04:33:38;;;;;;;;;;;;;;;7.19;84.26;98524.59;1088294;54;1850;-80
2023/11/11 04:34:43;;;;;;;;;;;;;;;7.22;83.99;98516.31;1088317;54;1012;-81
2023/11/11 04:35:46;;;;;;;;;;;;;;;7.17;83.87;98523.94;1088395;47;1036;-80
2023/11/11 04:36:51;;;;;;;;;;;;;;;7.19;84.26;98519.28;1088284;47;1045;-80
2023/11/11 04:37:53;;;;;;;;;;;;;;;7.13;84.10;98527.91;1088389;54;979;-80
2023/11/11 04:38:56;;;;;;;;;;;;;;;7.24;83.97;98532.09;1088192;47;1011;-80
2023/11/11 04:39:58;;;;;;;;;;;;;;;7.34;83.83;98524.81;1088200;47;1308;-80
2023/11/11 04:40:58;;;;;;;;;;;;;;;7.26;84.12;98533.63;1088222;47;882;-81
2023/11/11 04:42:02;;;;;;;;;;;;;;;7.20;84.04;98533.41;1088295;47;1015;-82
2023/11/11 04:43:02;;;;;;;;;;;;;;;7.21;83.56;98538.56;1087888;47;946;-80
2023/11/11 04:44:06;;;;;;;;;;;;;;;7.26;83.65;98538.94;1088248;47;919;-81
2023/11/11 04:45:10;;;;;;;;;;;;;;;7.24;83.66;98542.72;1088108;47;957;-79
2023/11/11 04:46:16;;;;;;;;;;;;;;;7.21;83.93;98546.53;1088272;47;987;-81
2023/11/11 04:47:17;;;;;;;;;;;;;;;7.30;83.83;98553.56;1088258;47;924;-80
2023/11/11 04:48:21;;;;;;;;;;;;;;;7.20;83.64;98542.22;1088119;47;960;-79
2023/11/11 04:49:22;;;;;;;;;;;;;;;7.23;83.24;98544.56;1088175;47;1312;-81
2023/11/11 04:50:27;;;;;;;;;;;;;;;7.26;83.28;98551.38;1088368;54;846;-80
2023/11/11 04:51:27;;;;;;;;;;;;;;;7.31;83.26;98559.72;1088198;54;935;-79
2023/11/11 04:52:28;;;;;;;;;;;;;;;7.41;82.90;98546.28;1088253;54;969;-80
2023/11/11 04:53:31;;;;;;;;;;;;;;;7.44;82.36;98557.41;1088033;47;1856;-81
2023/11/11 04:54:32;;;;;;;;;;;;;;;7.42;82.40;98558.59;1088212;47;989;-80
2023/11/11 04:55:36;;;;;;;;;;;;;;;7.43;82.30;98563.72;1088127;47;986;-81
2023/11/11 04:56:38;;;;;;;;;;;;;;;7.50;81.98;98569.25;1088075;54;1003;-80
2023/11/11 04:57:42;;;;;;;;;;;;;;;7.46;82.25;98565.25;1088189;54;997;-82
2023/11/11 04:58:43;;;;;;;;;;;;;;;7.51;82.24;98568.25;1088098;54;898;-81
2023/11/11 04:59:49;;;;;;;;;;;;;;;7.57;81.82;98572.91;1088144;47;1331;-80
2023/11/11 05:00:52;;;;;;;;;;;;;;;7.48;81.75;98565.91;1088214;47;885;-80
2023/11/11 05:01:55;;;;;;;;;;;;;;;7.32;82.06;98567.53;1088215;47;957;-80
2023/11/11 05:02:56;;;;;;;;;;;;;;;7.46;81.98;98570.56;1088273;54;1144;-80
2023/11/11 05:04:00;;;;;;;;;;;;;;;7.50;81.81;98582.53;1087829;54;1099;-81
2023/11/11 05:05:00;;;;;;;;;;;;;;;7.34;82.22;98578.84;1088092;47;929;-80
2023/11/11 05:06:05;;;;;;;;;;;;;;;7.32;82.10;98577.34;1088143;47;975;-80
2023/11/11 05:07:06;;;;;;;;;;;;;;;7.31;82.34;98580.97;1088148;47;962;-81
2023/11/11 05:08:07;;;;;;;;;;;;;;;7.21;82.54;98588.25;1088132;47;977;-81
2023/11/11 05:09:11;;;;;;;;;;;;;;;7.26;82.21;98586.78;1088210;47;982;-80
2023/11/11 05:10:12;;;;;;;;;;;;;;;7.31;82.26;98591.63;1088128;54;1201;-80
2023/11/11 05:11:15;;;;;;;;;;;;;;;7.21;82.32;98586.41;1088315;54;993;-80
2023/11/11 05:12:18;;;;;;;;;;;;;;;7.22;82.27;98596.03;1088224;54;1122;-81
2023/11/11 05:13:23;;;;;;;;;;;;;;;7.31;81.88;98597.75;1088099;47;1858;-81
2023/11/11 05:14:25;;;;;;;;;;;;;;;7.24;82.16;98598.53;1088173;47;987;-81
2023/11/11 05:15:30;;;;;;;;;;;;;;;7.20;81.95;98600.69;1088130;47;911;-80
2023/11/11 05:16:39;;;;;;;;;;;;;;;7.22;81.76;98603.19;1088194;54;978;-80
2023/11/11 05:17:43;;;;;;;;;;;;;;;7.26;81.72;98615.16;1088303;54;976;-81
2023/11/11 05:18:45;;;;;;;;;;;;;;;7.29;81.95;98613.03;1088169;47;920;-82
2023/11/11 05:19:49;;;;;;;;;;;;;;;7.22;81.79;98619.16;1088211;54;1301;-81
2023/11/11 05:20:50;;;;;;;;;;;;;;;7.14;82.41;98620.75;1088317;54;1026;-81
2023/11/11 05:21:53;;;;;;;;;;;;;;;7.16;82.48;98624.09;1088286;54;915;-80
2023/11/11 05:22:54;;;;;;;;;;;;;;;7.28;82.30;98622.00;1088051;47;975;-80
2023/11/11 05:57:47;;;;;;;;;;;;;;;7.23;80.28;98725.31;1088031;54;1017;-81
2023/11/11 05:58:48;;;;;;;;;;;;;;;7.24;80.38;98728.78;1089144;54;1038;-82
2023/11/11 05:59:52;;;;;;;;;;;;;;;7.30;80.08;98729.00;1088855;46;1231;-82
2023/11/11 06:00:55;;;;;;;;;;;;;;;7.30;79.95;98731.66;1088878;54;1090;-78
2023/11/11 06:01:58;;;;;;;;;;;;;;;7.36;79.94;98740.03;1089096;54;1050;-79
2023/11/11 06:02:59;;;;;;;;;;;;;;;7.28;80.13;98735.47;1088876;47;923;-81
2023/11/11 06:04:02;;;;;;;;;;;;;;;7.30;79.88;98742.28;1088919;54;899;-82
2023/11/11 06:05:03;;;;;;;;;;;;;;;7.37;79.78;98736.38;1088911;54;923;-81
2023/11/11 06:06:09;;;;;;;;;;;;;;;7.35;79.59;98739.16;1088779;54;973;-81
2023/11/11 06:07:13;;;;;;;;;;;;;;;7.34;79.94;98742.81;1088887;54;1126;-82
2023/11/11 06:08:16;;;;;;;;;;;;;;;7.41;79.26;98748.34;1088908;54;940;-79
2023/11/11 06:09:19;;;;;;;;;;;;;;;7.28;79.70;98748.75;1088757;47;1323;-82
2023/11/11 06:10:23;;;;;;;;;;;;;;;7.30;79.42;98755.59;1088929;46;956;-82
2023/11/11 06:11:24;;;;;;;;;;;;;;;7.29;79.74;98751.25;1088793;54;1077;-83
2023/11/11 06:12:27;;;;;;;;;;;;;;;7.30;79.55;98752.94;1088869;46;959;-82
2023/11/11 06:13:31;;;;;;;;;;;;;;;7.40;79.35;98752.00;1088807;54;1858;-83
2023/11/11 06:14:34;;;;;;;;;;;;;;;7.36;79.52;98755.97;1088773;46;918;-80
2023/11/11 06:15:35;;;;;;;;;;;;;;;7.37;79.22;98747.00;1088789;54;1126;-82
2023/11/11 06:16:42;;;;;;;;;;;;;;;7.47;78.79;98753.03;1088868;54;888;-81
2023/11/11 06:17:43;;;;;;;;;;;;;;;7.40;79.01;98752.00;1088718;54;925;-81
2023/11/11 06:18:53;;;;;;;;;;;;;;;7.40;78.95;98757.31;1088621;46;1125;-80
2023/11/11 06:19:53;;;;;;;;;;;;;;;7.29;79.14;98747.78;1088641;54;1351;-80
2023/11/11 06:20:57;;;;;;;;;;;;;;;7.27;79.17;98758.56;1088734;46;1805;-82
2023/11/11 06:21:58;;;;;;;;;;;;;;;7.32;79.44;98764.25;1088764;54;1007;-82
2023/11/11 06:23:01;;;;;;;;;;;;;;;7.38;79.13;98760.13;1088785;54;924;-82
2023/11/11 06:24:04;;;;;;;;;;;;;;;7.38;78.87;98765.47;1088640;54;987;-81
2023/11/11 06:25:07;;;;;;;;;;;;;;;7.39;78.36;98763.63;1088745;54;994;-82
2023/11/11 06:26:13;;;;;;;;;;;;;;;7.47;78.32;98769.00;1088797;47;884;-80
2023/11/11 06:27:16;;;;;;;;;;;;;;;7.32;78.16;98764.25;1088753;54;975;-81
2023/11/11 06:28:19;;;;;;;;;;;;;;;7.28;78.48;98765.53;1088819;47;886;-81
2023/11/11 06:29:22;;;;;;;;;;;;;;;7.17;78.72;98768.47;1088613;54;1374;-80
2023/11/11 06:30:26;;;;;;;;;;;;;;;7.25;78.80;98776.50;1088626;54;1094;-81
2023/11/11 06:31:26;;;;;;;;;;;;;;;7.32;78.69;98771.41;1088864;54;892;-80
2023/11/11 06:32:30;;;;;;;;;;;;;;;7.30;78.31;98768.06;1088767;47;940;-81
2023/11/11 06:33:30;;;;;;;;;;;;;;;7.37;78.09;98768.28;1088546;54;1853;-81
2023/11/11 06:34:34;;;;;;;;;;;;;;;7.37;78.37;98768.28;1088730;47;972;-81
2023/11/11 06:35:34;;;;;;;;;;;;;;;7.28;78.23;98773.50;1088634;47;1000;-82
2023/11/11 06:36:38;;;;;;;;;;;;;;;7.28;78.32;98768.19;1088622;54;1133;-81
2023/11/11 06:37:39;;;;;;;;;;;;;;;7.21;78.22;98769.00;1088552;47;1154;-81
2023/11/11 06:38:43;;;;;;;;;;;;;;;7.22;78.42;98778.63;1088654;46;1048;-81
2023/11/11 06:39:44;;;;;;;;;;;;;;;7.27;78.20;98771.88;1088573;54;1355;-82
2023/11/11 06:40:47;;;;;;;;;;;;;;;7.36;77.96;98779.91;1088739;54;939;-81
2023/11/11 06:41:51;;;;;;;;;;;;;;;7.27;78.25;98774.53;1088669;54;967;-81
2023/11/11 06:42:55;;;;;;;;;;;;;;;7.26;78.26;98779.97;1088748;54;1076;-79
2023/11/11 06:43:58;;;;;;;;;;;;;;;7.14;78.29;98782.06;1088570;47;963;-79
2023/11/11 06:45:01;;;;;;;;;;;;;;;7.20;78.23;98789.41;1088655;47;949;-80
2023/11/11 06:46:06;;;;;;;;;;;;;;;7.24;78.16;98785.47;1088433;47;1080;-81
2023/11/11 06:47:08;;;;;;;;;;;;;;;7.19;78.15;98787.72;1088768;54;1120;-81
2023/11/11 06:48:12;;;;;;;;;;;;;;;7.16;77.67;98788.06;1088517;54;993;-81
2023/11/11 06:49:13;;;;;;;;;;;;;;;7.26;77.73;98790.63;1088445;47;915;-80
2023/11/11 06:50:17;;;;;;;;;;;;;;;7.38;77.55;98788.53;1088246;54;1187;-80
2023/11/11 06:51:17;;;;;;;;;;;;;;;7.41;77.38;98790.91;1088345;54;1100;-80
2023/11/11 06:52:18;;;;;;;;;;;;;;;7.24;77.30;98785.47;1088074;47;976;-80
2023/11/11 06:53:22;;;;;;;;;;;;;;;7.28;77.45;98786.81;1088271;47;1092;-80
2023/11/11 06:54:23;;;;;;;;;;;;;;;7.33;77.22;98789.84;1088337;54;1851;-78
2023/11/11 06:55:29;;;;;;;;;;;;;;;7.27;77.48;98790.47;1088156;47;1011;-80
2023/11/11 06:56:30;;;;;;;;;;;;;;;7.25;77.04;98802.22;1087971;54;1083;-80
2023/11/11 06:57:33;;;;;;;;;;;;;;;7.30;76.64;98797.31;1088156;54;1105;-78
2023/11/11 06:58:34;;;;;;;;;;;;;;;7.27;77.12;98786.97;1087148;54;1226;-80
2023/11/11 06:59:37;;;;;;;;;;;;;;;7.12;77.12;98797.31;1087953;54;1279;-79
2023/11/11 07:00:40;;;;;;;;;;;;;;;7.18;77.15;98802.84;1088489;54;995;-81
2023/11/11 07:01:44;;;;;;;;;;;;;;;7.07;77.39;98804.91;1088093;54;1031;-79
2023/11/11 07:02:44;;;;;;;;;;;;;;;7.12;77.67;98802.63;1088445;54;1138;-80
2023/11/11 07:03:48;;;;;;;;;;;;;;;7.14;77.66;98812.09;1088497;54;1086;-81
2023/11/11 07:04:53;;;;;;;;;;;;;;;7.14;77.59;98805.97;1087927;54;1058;-80
2023/11/11 07:05:56;;;;;;;;;;;;;;;7.20;77.63;98813.31;1088433;47;924;-81
2023/11/11 07:06:57;;;;;;;;;;;;;;;7.21;77.52;98816.84;1088466;54;1086;-79
2023/11/11 07:08:01;;;;;;;;;;;;;;;7.26;77.62;98823.38;1088301;54;1062;-81
2023/11/11 07:09:01;;;;;;;;;;;;;;;7.28;77.28;98825.84;1088536;47;1056;-79
2023/11/11 07:10:09;;;;;;;;;;;;;;;7.25;77.40;98829.66;1088515;47;1429;-80
2023/11/11 07:11:09;;;;;;;;;;;;;;;7.25;77.48;98831.47;1088722;47;964;-81
2023/11/11 07:12:13;;;;;;;;;;;;;;;7.19;77.87;98832.91;1088773;54;1078;-80
2023/11/11 07:13:15;;;;;;;;;;;;;;;7.24;78.00;98833.31;1088691;54;1023;-80
2023/11/11 07:14:21;;;;;;;;;;;;;;;7.29;78.25;98839.00;1088059;54;1873;-78
2023/11/11 07:15:22;;;;;;;;;;;;;;;7.31;78.00;98839.69;1088813;54;1146;-80
2023/11/11 07:16:32;;;;;;;;;;;;;;;7.29;77.96;98836.34;1088716;47;880;-81
2023/11/11 07:17:33;;;;;;;;;;;;;;;7.32;78.02;98845.84;1088819;54;972;-80
2023/11/11 07:18:35;;;;;;;;;;;;;;;7.22;77.98;98848.56;1088587;54;1101;-80
2023/11/11 07:19:46;;;;;;;;;;;;;;;7.22;78.36;98845.09;1088467;54;1406;-81
2023/11/11 07:20:47;;;;;;;;;;;;;;;7.35;78.26;98861.47;1088924;54;998;-83
2023/11/11 07:21:52;;;;;;;;;;;;;;;7.25;78.52;98860.72;1088904;47;980;-81
2023/11/11 07:22:54;;;;;;;;;;;;;;;7.25;79.03;98871.34;1088749;54;919;-81
2023/11/11 07:23:58;;;;;;;;;;;;;;;7.07;80.14;98874.03;1088607;54;947;-80
2023/11/11 07:24:59;;;;;;;;;;;;;;;7.08;80.82;98873.84;1088353;54;1019;-80
2023/11/11 07:26:01;;;;;;;;;;;;;;;7.03;81.16;98879.63;1088679;47;1185;-83
2023/11/11 07:27:05;;;;;;;;;;;;;;;7.02;81.23;98871.81;1088243;54;982;-79
2023/11/11 07:28:06;;;;;;;;;;;;;;;6.82;82.69;98876.41;1087878;54;1059;-80
2023/11/11 07:29:11;;;;;;;;;;;;;;;6.83;83.41;98880.72;1087743;54;1122;-80
2023/11/11 07:30:12;;;;;;;;;;;;;;;6.77;83.96;98876.84;1087303;54;1437;-80
2023/11/11 07:31:16;;;;;;;;;;;;;;;6.87;83.89;98877.63;1088218;47;1034;-80
2023/11/11 07:32:20;;;;;;;;;;;;;;;6.92;83.04;98879.00;1088364;47;1037;-80
2023/11/11 07:33:23;;;;;;;;;;;;;;;6.90;83.82;98880.97;1088460;54;1003;-81
2023/11/11 07:34:24;;;;;;;;;;;;;;;6.91;83.64;98880.81;1088368;54;1902;-80
2023/11/11 07:35:31;;;;;;;;;;;;;;;6.84;83.18;98882.41;1088565;54;1195;-83
2023/11/11 07:36:33;;;;;;;;;;;;;;;6.80;83.49;98881.06;1088530;54;1108;-80
2023/11/11 07:37:36;;;;;;;;;;;;;;;6.85;83.39;98882.25;1088332;54;1173;-81
2023/11/11 07:38:40;;;;;;;;;;;;;;;6.79;83.75;98877.53;1088690;47;1065;-80
2023/11/11 07:39:44;;;;;;;;;;;;;;;6.82;83.66;98881.72;1088755;54;1287;-82
2023/11/11 07:40:44;;;;;;;;;;;;;;;6.90;83.30;98889.78;1088598;54;1063;-83
2023/11/11 07:41:50;;;;;;;;;;;;;;;6.88;83.03;98886.44;1088772;54;1150;-82
2023/11/11 07:48:47;;;;;;;;;;;;;;;6.81;82.90;98885.34;1089073;54;676;-83
2023/11/11 07:49:48;;;;;;;;;;;;;;;6.78;82.74;98890.97;1089079;54;1364;-81
2023/11/11 07:50:54;;;;;;;;;;;;;;;6.67;82.77;98898.16;1089073;46;981;-80
2023/11/11 07:51:55;;;;;;;;;;;;;;;6.72;83.18;98895.88;1088868;54;1035;-83
2023/11/11 07:52:58;;;;;;;;;;;;;;;6.71;83.14;98899.53;1088897;54;989;-83
2023/11/11 07:54:03;;;;;;;;;;;;;;;6.79;82.94;98892.66;1088790;47;1854;-81
2023/11/11 07:55:07;;;;;;;;;;;;;;;6.85;82.30;98900.03;1088815;54;1129;-79
2023/11/11 07:56:11;;;;;;;;;;;;;;;6.92;82.18;98902.94;1088772;54;1594;-80
2023/11/11 07:57:15;;;;;;;;;;;;;;;6.85;82.69;98903.50;1088542;47;1010;-82
2023/11/11 07:58:23;;;;;;;;;;;;;;;6.86;82.40;98902.50;1088715;54;871;-81
2023/11/11 07:59:30;;;;;;;;;;;;;;;6.98;82.53;98903.16;1088596;47;1259;-82
2023/11/11 08:00:33;;;;;;;;;;;;;;;7.04;82.25;98909.69;1088764;46;1094;-81
2023/11/11 08:01:39;;;;;;;;;;;;;;;6.95;82.39;98908.78;1088850;54;944;-81
2023/11/11 08:02:52;;;;;;;;;;;;;;;7.05;82.22;98915.84;1088828;47;845;-82
2023/11/11 08:04:00;;;;;;;;;;;;;;;7.12;81.84;98907.13;1088817;54;911;-83
2023/11/11 08:05:17;;;;;;;;;;;;;;;7.15;81.76;98919.28;1088814;54;939;-84
2023/11/11 08:06:42;;;;;;;;;;;;;;;6.95;81.51;98908.78;1088833;54;1053;-82
2023/11/11 08:07:45;;;;;;;;;;;;;;;6.96;81.44;98914.91;1088085;54;1339;-78
2023/11/11 08:08:49;;;;;;;;;;;;;;;7.06;81.36;98928.97;1087961;47;1055;-79
2023/11/11 08:09:50;;;;;;;;;;;;;;;6.99;81.28;98925.25;1088059;54;1268;-80
2023/11/11 08:10:54;;;;;;;;;;;;;;;6.98;81.48;98919.13;1088140;54;1051;-81
2023/11/11 08:11:55;;;;;;;;;;;;;;;6.94;81.71;98924.88;1088422;54;1485;-81
2023/11/11 08:13:01;;;;;;;;;;;;;;;6.97;81.11;98921.91;1088698;46;1035;-80
2023/11/11 08:14:07;;;;;;;;;;;;;;;6.93;81.44;98928.50;1088765;54;1860;-81
2023/11/11 08:15:34;;;;;;;;;;;;;;;6.93;81.27;98929.34;1088709;54;896;-82
2023/11/11 08:16:45;;;;;;;;;;;;;;;6.97;80.92;98930.72;1088667;54;935;-82
2023/11/11 08:17:49;;;;;;;;;;;;;;;6.95;80.77;98937.16;1088442;54;1166;-82
2023/11/11 08:18:53;;;;;;;;;;;;;;;6.91;80.77;98927.81;1088682;54;1009;-82
2023/11/11 08:20:16;;;;;;;;;;;;;;;6.86;80.95;98937.06;1088347;54;1241;-81
2023/11/11 08:23:04;;;;;;;;;;;;;;;6.87;80.85;98938.72;1088461;47;1019;-81
2023/11/11 08:24:15;;;;;;;;;;;;;;;7.02;80.58;98944.38;1088826;54;1002;-82